Time;durP1;ratioP1;P1;durP2;ratioP2;P2;SDS_P1;SDS_P2;PMS_P1;PMS_P2;Temp;Humidity;BMP_temperature;BMP_pressure;BME280_temperature;BME280_humidity;BME280_pressure;Samples;Min_cycle;Max_cycle;Signal;HPM_P1;HPM_P2
2021/12/01 00:01:29;;;;;;;46.47;26.85;;;9.40;99.90;;;;;;5000501;28;20135;-66
2021/12/01 00:03:54;;;;;;;40.40;25.55;;;9.50;99.90;;;;;;5007452;28;20565;-66
2021/12/01 00:06:20;;;;;;;44.13;25.85;;;9.40;99.90;;;;;;5000134;28;20124;-66
2021/12/01 00:08:46;;;;;;;31.95;23.83;;;9.50;99.90;;;;;;5006527;28;20040;-66
2021/12/01 00:11:11;;;;;;;34.30;22.02;;;9.50;99.90;;;;;;5002128;28;20048;-66
2021/12/01 00:13:37;;;;;;;28.02;20.58;;;9.50;99.90;;;;;;5005625;28;20033;-66
2021/12/01 00:16:04;;;;;;;30.60;21.00;;;9.50;99.90;;;;;;4987851;28;20053;-66
2021/12/01 00:18:30;;;;;;;33.45;22.63;;;9.60;99.90;;;;;;5006021;28;20042;-65
2021/12/01 00:20:57;;;;;;;30.05;21.33;;;9.50;99.90;;;;;;4984125;28;20549;-66
2021/12/01 00:23:24;;;;;;;27.92;17.75;;;9.50;99.90;;;;;;5008188;28;20041;-65
2021/12/01 00:25:50;;;;;;;28.30;20.48;;;9.50;99.90;;;;;;5003155;28;20092;-65
2021/12/01 00:28:16;;;;;;;30.40;21.13;;;9.60;99.90;;;;;;5003078;28;20042;-65
2021/12/01 00:30:42;;;;;;;25.90;19.63;;;9.60;99.90;;;;;;5008083;28;20403;-65
2021/12/01 00:33:09;;;;;;;23.35;18.92;;;9.60;99.90;;;;;;5003642;28;20045;-65
2021/12/01 00:35:35;;;;;;;32.15;20.52;;;9.60;99.90;;;;;;4998528;28;20405;-65
2021/12/01 00:38:01;;;;;;;28.40;20.23;;;9.60;99.90;;;;;;5006460;28;20034;-64
2021/12/01 00:40:26;;;;;;;28.08;18.38;;;9.60;99.90;;;;;;5004498;28;20088;-65
2021/12/01 00:42:53;;;;;;;24.75;18.27;;;9.60;99.90;;;;;;5003511;28;20038;-65
2021/12/01 00:45:22;;;;;;;23.55;19.20;;;9.60;99.90;;;;;;5011398;28;20042;-65
2021/12/01 00:47:53;;;;;;;24.88;17.83;;;9.60;99.90;;;;;;5004264;28;20509;-64
2021/12/01 00:50:29;;;;;;;25.58;18.73;;;9.60;99.90;;;;;;5010523;28;20040;-64
2021/12/01 00:53:00;;;;;;;25.73;17.55;;;9.60;99.90;;;;;;5006980;28;20056;-64
2021/12/01 00:55:26;;;;;;;27.90;18.83;;;9.60;99.90;;;;;;5008833;28;20042;-65
2021/12/01 00:57:52;;;;;;;21.50;15.98;;;9.60;99.90;;;;;;5004255;28;20498;-65
2021/12/01 01:00:23;;;;;;;24.27;16.00;;;9.60;99.90;;;;;;5010307;28;20037;-65
2021/12/01 01:02:50;;;;;;;26.80;16.75;;;9.60;99.90;;;;;;5004048;28;20054;-65
2021/12/01 01:05:16;;;;;;;25.77;17.02;;;9.60;99.90;;;;;;5010732;28;20038;-65
2021/12/01 01:07:42;;;;;;;26.83;15.98;;;9.60;99.90;;;;;;5003310;28;20426;-65
2021/12/01 01:18:40;;;;;;;24.95;13.90;;;9.60;99.90;;;;;;5002965;28;20044;-65
2021/12/01 01:21:07;;;;;;;30.23;14.88;;;9.60;99.90;;;;;;5011696;28;20121;-65
2021/12/01 01:23:35;;;;;;;23.75;14.18;;;9.70;99.90;;;;;;5005968;28;20495;-65
2021/12/01 01:26:02;;;;;;;24.15;13.63;;;9.70;99.90;;;;;;5005699;28;20042;-65
2021/12/01 01:28:28;;;;;;;22.67;14.05;;;9.70;99.90;;;;;;5003978;28;20064;-65
2021/12/01 01:30:54;;;;;;;18.88;12.50;;;9.60;99.90;;;;;;5010860;28;20414;-65
2021/12/01 01:33:22;;;;;;;16.95;10.98;;;9.60;99.90;;;;;;5004189;28;20117;-65
2021/12/01 01:35:48;;;;;;;17.00;9.95;;;9.70;99.90;;;;;;5007173;28;20076;-65
2021/12/01 01:38:14;;;;;;;15.50;8.93;;;9.70;99.90;;;;;;5011292;28;20390;-65
2021/12/01 01:40:40;;;;;;;19.45;9.68;;;9.60;99.90;;;;;;5002819;28;20053;-65
2021/12/01 01:43:07;;;;;;;13.85;9.25;;;9.70;99.90;;;;;;5007703;28;20054;-65
2021/12/01 01:45:33;;;;;;;13.00;7.68;;;9.70;99.90;;;;;;5004744;28;20073;-65
2021/12/01 01:50:36;;;;;;;10.95;7.72;;;9.70;99.90;;;;;;5006766;28;20049;-65
2021/12/01 01:53:13;;;;;;;11.88;6.82;;;9.80;99.90;;;;;;5008788;28;20042;-65
2021/12/01 01:55:42;;;;;;;10.82;6.75;;;9.80;99.90;;;;;;4999215;28;20037;-65
2021/12/01 01:58:09;;;;;;;10.68;6.90;;;9.80;99.90;;;;;;5011461;28;20474;-65
2021/12/01 02:00:43;;;;;;;13.35;7.30;;;9.80;99.90;;;;;;5003503;28;20034;-65
2021/12/01 02:03:12;;;;;;;;;;;9.80;99.90;;;;;;5008842;28;20045;-65
2021/12/01 02:05:39;;;;;;;9.55;7.00;;;9.70;99.90;;;;;;5003411;28;20008;-65
2021/12/01 02:08:05;;;;;;;10.63;6.65;;;9.60;99.90;;;;;;5005152;28;20040;-65
2021/12/01 02:10:31;;;;;;;9.00;7.30;;;9.80;99.90;;;;;;5003379;28;20041;-65
2021/12/01 02:12:57;;;;;;;8.38;5.65;;;9.80;99.90;;;;;;4995252;28;20049;-66
2021/12/01 02:15:23;;;;;;;8.52;6.20;;;9.80;99.90;;;;;;5002695;28;20057;-65
2021/12/01 02:17:48;;;;;;;6.68;4.72;;;9.80;99.90;;;;;;5009547;28;20163;-66
2021/12/01 02:20:21;;;;;;;5.90;4.63;;;9.80;99.90;;;;;;4992350;28;20053;-66
2021/12/01 02:22:47;;;;;;;6.20;4.60;;;9.90;99.90;;;;;;5006861;28;20042;-65
2021/12/01 02:25:14;;;;;;;6.63;5.07;;;9.90;99.90;;;;;;4996143;28;20116;-66
2021/12/01 02:27:40;;;;;;;6.40;4.97;;;9.90;99.90;;;;;;5005453;28;20045;-65
2021/12/01 02:30:06;;;;;;;5.75;4.65;;;9.90;99.90;;;;;;5007898;28;20042;-65
2021/12/01 02:32:32;;;;;;;7.20;4.00;;;9.90;99.90;;;;;;5006620;28;20489;-65
2021/12/01 02:34:57;;;;;;;6.65;4.55;;;9.90;99.90;;;;;;5008721;28;20052;-66
2021/12/01 02:37:24;;;;;;;5.85;4.20;;;9.90;99.90;;;;;;5000681;28;20050;-66
2021/12/01 02:39:52;;;;;;;8.38;4.53;;;9.90;99.90;;;;;;5002363;28;20406;-66
2021/12/01 02:42:20;;;;;;;8.55;4.85;;;10.00;99.90;;;;;;5001541;28;20033;-66
2021/12/01 02:44:46;;;;;;;9.93;5.10;;;10.00;99.90;;;;;;5008689;28;20479;-66
2021/12/01 02:47:12;;;;;;;5.72;4.43;;;10.00;99.90;;;;;;5005250;28;20351;-66
2021/12/01 02:49:39;;;;;;;5.07;4.45;;;10.00;99.90;;;;;;5008594;28;20064;-66
2021/12/01 02:52:05;;;;;;;7.72;5.00;;;10.00;99.90;;;;;;5001972;28;20038;-66
2021/12/01 02:54:32;;;;;;;5.35;3.92;;;10.00;99.90;;;;;;5011222;28;20046;-66
2021/12/01 02:56:59;;;;;;;5.68;3.95;;;10.00;99.90;;;;;;4983287;28;20056;-65
2021/12/01 02:59:25;;;;;;;5.32;3.58;;;10.00;99.90;;;;;;5007898;28;20034;-65
2021/12/01 03:01:53;;;;;;;4.70;4.22;;;10.00;99.90;;;;;;4990666;28;20136;-65
2021/12/01 03:04:21;;;;;;;4.35;3.20;;;10.00;99.90;;;;;;5008381;28;20038;-65
2021/12/01 03:06:49;;;;;;;5.35;3.20;;;10.00;99.90;;;;;;5009872;28;20045;-66
2021/12/01 03:09:15;;;;;;;6.32;3.35;;;10.00;99.90;;;;;;5004466;28;20042;-66
2021/12/01 03:11:42;;;;;;;4.45;2.35;;;10.00;99.90;;;;;;4988732;28;20049;-66
2021/12/01 03:14:15;;;;;;;7.00;2.40;;;10.00;99.90;;;;;;4990393;28;20041;-66
2021/12/01 03:16:42;;;;;;;3.80;2.60;;;10.00;99.90;;;;;;5010424;28;20073;-66
2021/12/01 03:19:08;;;;;;;5.13;2.13;;;10.00;99.90;;;;;;4982889;28;20543;-65
2021/12/01 03:21:41;;;;;;;6.53;2.08;;;10.00;99.90;;;;;;4996103;28;20050;-66
2021/12/01 03:24:08;;;;;;;5.88;1.58;;;10.00;99.90;;;;;;5003932;28;20676;-66
2021/12/01 03:26:34;;;;;;;7.65;1.50;;;10.00;99.90;;;;;;5005895;28;20055;-65
2021/12/01 03:29:01;;;;;;;10.68;1.42;;;10.00;99.90;;;;;;5004280;28;20048;-66
2021/12/01 03:31:26;;;;;;;5.28;1.38;;;10.00;99.90;;;;;;5007912;28;20418;-66
2021/12/01 03:33:53;;;;;;;8.48;1.38;;;10.00;99.90;;;;;;4985412;28;20049;-65
2021/12/01 03:36:18;;;;;;;6.57;1.30;;;10.00;99.90;;;;;;5001973;28;20050;-66
2021/12/01 03:38:44;;;;;;;7.70;1.20;;;10.00;99.90;;;;;;5003524;28;20061;-66
2021/12/01 03:41:11;;;;;;;8.45;1.70;;;10.00;99.90;;;;;;4996674;28;20179;-66
2021/12/01 03:43:36;;;;;;;6.85;1.30;;;9.90;99.90;;;;;;5005345;28;20044;-66
2021/12/01 03:46:02;;;;;;;5.15;1.55;;;10.00;99.90;;;;;;5007105;28;20422;-65
2021/12/01 03:48:28;;;;;;;8.65;2.08;;;9.90;99.90;;;;;;5004405;28;20108;-65
2021/12/01 03:50:54;;;;;;;4.95;1.30;;;10.00;99.90;;;;;;5005083;28;20180;-65
2021/12/01 03:53:22;;;;;;;8.52;1.95;;;10.00;99.90;;;;;;5000688;28;20034;-66
2021/12/01 03:55:48;;;;;;;6.78;1.90;;;9.90;99.90;;;;;;4998253;28;20737;-66
2021/12/01 03:58:15;;;;;;;5.28;1.90;;;9.90;99.90;;;;;;5000472;28;20033;-66
2021/12/01 04:00:41;;;;;;;6.05;2.10;;;9.90;99.90;;;;;;4995421;28;20375;-65
2021/12/01 04:03:06;;;;;;;4.53;1.70;;;9.90;99.90;;;;;;5008616;28;20064;-66
2021/12/01 04:05:34;;;;;;;5.00;1.88;;;9.90;99.90;;;;;;4987247;28;20050;-66
2021/12/01 04:08:01;;;;;;;3.35;1.90;;;9.90;99.90;;;;;;5006414;28;20488;-66
2021/12/01 04:10:28;;;;;;;4.10;1.75;;;9.90;99.90;;;;;;4989254;28;20133;-66
2021/12/01 04:12:54;;;;;;;6.53;2.10;;;9.90;99.90;;;;;;4988429;28;20045;-66
2021/12/01 04:15:20;;;;;;;3.40;1.83;;;9.90;99.90;;;;;;5001444;28;20439;-66
2021/12/01 04:17:47;;;;;;;3.55;1.83;;;9.90;99.90;;;;;;5006153;28;20069;-66
2021/12/01 04:20:15;;;;;;;5.57;2.25;;;9.90;99.90;;;;;;5000561;28;20240;-66
2021/12/01 04:22:42;;;;;;;4.88;2.30;;;9.80;99.90;;;;;;5004936;28;20053;-66
2021/12/01 04:25:09;;;;;;;4.65;2.13;;;9.90;99.90;;;;;;4986371;28;20049;-66
2021/12/01 04:27:35;;;;;;;4.00;2.30;;;9.90;99.90;;;;;;4992044;28;20489;-66
2021/12/01 04:30:02;;;;;;;4.32;2.13;;;9.80;99.90;;;;;;5011005;28;20421;-66
2021/12/01 04:32:28;;;;;;;6.53;1.77;;;9.80;99.90;;;;;;5000041;28;20046;-66
2021/12/01 04:34:56;;;;;;;3.38;1.85;;;9.80;99.90;;;;;;4994759;28;20043;-65
2021/12/01 04:37:22;;;;;;;3.92;1.83;;;9.90;99.90;;;;;;5003737;28;20165;-66
2021/12/01 04:39:48;;;;;;;2.53;1.38;;;9.90;99.90;;;;;;5005787;28;20066;-66
2021/12/01 04:42:14;;;;;;;2.10;1.27;;;9.90;99.90;;;;;;5001833;28;20050;-65
2021/12/01 04:44:40;;;;;;;2.28;1.63;;;9.90;99.90;;;;;;5010808;28;20100;-66
2021/12/01 04:47:10;;;;;;;3.90;1.40;;;9.90;99.90;;;;;;4999826;28;20037;-66
2021/12/01 04:49:39;;;;;;;2.08;1.17;;;9.80;99.90;;;;;;5007521;28;20540;-66
2021/12/01 04:52:07;;;;;;;3.47;1.42;;;9.80;99.90;;;;;;4984419;28;20141;-66
2021/12/01 04:54:34;;;;;;;2.03;1.33;;;9.80;99.90;;;;;;5006666;28;20045;-66
2021/12/01 04:57:00;;;;;;;1.92;1.20;;;9.80;99.90;;;;;;5003875;28;20042;-66
2021/12/01 04:59:26;;;;;;;2.50;1.15;;;9.70;99.90;;;;;;5005955;28;20042;-66
2021/12/01 05:01:55;;;;;;;2.00;1.20;;;9.70;99.90;;;;;;4980436;28;20454;-66
2021/12/01 05:04:22;;;;;;;1.40;1.27;;;9.70;99.90;;;;;;4998381;28;20062;-66
2021/12/01 05:06:48;;;;;;;4.60;1.42;;;9.70;99.90;;;;;;5003251;28;20061;-66
2021/12/01 05:09:14;;;;;;;2.10;1.52;;;9.70;99.90;;;;;;5005471;28;20041;-66
2021/12/01 05:11:40;;;;;;;1.65;1.50;;;9.60;99.90;;;;;;5001127;28;20119;-66
2021/12/01 05:14:07;;;;;;;1.33;1.13;;;9.70;99.90;;;;;;5003838;28;20046;-66
2021/12/01 05:16:35;;;;;;;1.40;1.30;;;9.60;99.90;;;;;;5005938;28;20347;-66
2021/12/01 05:19:01;;;;;;;1.50;1.40;;;9.60;99.90;;;;;;4995716;28;20050;-66
2021/12/01 05:21:27;;;;;;;1.73;1.33;;;9.60;99.90;;;;;;5009358;28;20042;-66
2021/12/01 05:23:52;;;;;;;1.98;1.55;;;9.60;99.90;;;;;;4994822;28;20045;-66
2021/12/01 05:26:19;;;;;;;3.95;1.58;;;9.60;99.90;;;;;;5011112;28;20050;-66
2021/12/01 05:28:45;;;;;;;1.95;1.83;;;9.50;99.90;;;;;;4987048;28;20046;-66
2021/12/01 05:31:11;;;;;;;2.00;1.80;;;9.50;99.90;;;;;;5004642;28;20046;-66
2021/12/01 05:33:39;;;;;;;2.10;1.92;;;9.50;99.90;;;;;;5003564;28;20339;-66
2021/12/01 05:36:05;;;;;;;2.20;1.70;;;9.50;99.90;;;;;;5006977;28;20053;-66
2021/12/01 05:38:30;;;;;;;2.33;2.13;;;9.50;99.90;;;;;;5005561;28;20041;-66
2021/12/01 05:40:56;;;;;;;3.17;1.85;;;9.50;99.90;;;;;;5012350;28;20040;-66
2021/12/01 05:43:22;;;;;;;1.90;1.70;;;9.40;99.90;;;;;;5002381;28;21069;-66
2021/12/01 05:45:48;;;;;;;2.63;2.08;;;9.50;99.90;;;;;;5011268;28;20030;-66
2021/12/01 05:48:15;;;;;;;2.00;1.70;;;9.50;99.90;;;;;;4994179;28;20046;-66
2021/12/01 05:50:42;;;;;;;1.90;1.63;;;9.50;99.90;;;;;;5009006;28;20037;-66
2021/12/01 05:53:09;;;;;;;2.92;1.90;;;9.40;99.90;;;;;;5012090;28;20041;-66
2021/12/01 05:55:36;;;;;;;1.90;1.70;;;9.50;99.90;;;;;;4994288;28;20038;-67
2021/12/01 05:58:03;;;;;;;1.90;1.70;;;9.40;99.90;;;;;;4994716;28;20074;-67
2021/12/01 06:00:29;;;;;;;2.13;1.92;;;9.40;99.90;;;;;;4994008;28;20045;-67
2021/12/01 06:02:55;;;;;;;1.80;1.60;;;9.40;99.90;;;;;;5009938;28;20050;-66
2021/12/01 06:05:22;;;;;;;2.75;1.73;;;9.40;99.90;;;;;;5002403;28;20072;-66
2021/12/01 06:07:49;;;;;;;1.65;1.55;;;9.30;99.90;;;;;;4995473;28;20050;-66
2021/12/01 06:10:16;;;;;;;1.52;1.40;;;9.30;99.90;;;;;;5005162;28;20057;-66
2021/12/01 06:12:43;;;;;;;1.88;1.65;;;9.30;99.90;;;;;;4994340;28;20176;-66
2021/12/01 06:15:10;;;;;;;1.42;1.20;;;9.20;99.90;;;;;;5006788;28;20045;-66
2021/12/01 06:17:36;;;;;;;1.52;1.33;;;9.20;99.90;;;;;;5008336;28;20532;-66
2021/12/01 06:20:07;;;;;;;2.78;1.38;;;9.20;99.90;;;;;;5002279;28;20034;-66
2021/12/01 06:22:33;;;;;;;1.55;1.10;;;9.20;99.90;;;;;;5010002;28;20104;-66
2021/12/01 06:24:59;;;;;;;1.23;0.93;;;9.10;99.90;;;;;;4988415;28;20914;-66
2021/12/01 06:27:25;;;;;;;1.33;0.95;;;9.10;99.90;;;;;;5009653;28;20054;-67
2021/12/01 06:29:53;;;;;;;1.13;0.60;;;9.10;99.90;;;;;;5005356;28;20048;-66
2021/12/01 06:32:19;;;;;;;1.15;0.68;;;9.20;99.90;;;;;;5008053;28;20505;-66
2021/12/01 06:34:44;;;;;;;1.63;0.60;;;9.10;99.90;;;;;;5010999;28;20025;-66
2021/12/01 06:37:10;;;;;;;1.52;0.60;;;9.20;99.90;;;;;;4999792;28;20486;-66
2021/12/01 06:39:36;;;;;;;1.00;0.57;;;9.10;99.90;;;;;;5006788;28;20042;-66
2021/12/01 06:42:02;;;;;;;0.93;0.70;;;9.20;99.90;;;;;;5005070;28;20041;-66
2021/12/01 06:44:30;;;;;;;0.95;0.63;;;9.10;99.90;;;;;;5009861;28;20137;-66
2021/12/01 06:46:59;;;;;;;1.42;0.82;;;9.00;99.90;;;;;;5002718;28;20045;-66
2021/12/01 06:49:25;;;;;;;1.70;0.90;;;9.00;99.90;;;;;;5006466;28;20038;-66
2021/12/01 06:51:51;;;;;;;1.15;0.98;;;9.00;99.90;;;;;;5005547;28;20501;-66
2021/12/01 06:54:17;;;;;;;0.95;0.70;;;9.00;99.90;;;;;;5008250;28;20092;-66
2021/12/01 06:56:43;;;;;;;1.27;1.00;;;9.00;99.90;;;;;;5001719;28;20140;-66
2021/12/01 06:59:09;;;;;;;1.08;0.65;;;9.00;99.90;;;;;;5008192;28;20038;-66
2021/12/01 07:01:35;;;;;;;0.80;0.68;;;9.00;99.90;;;;;;5003076;28;20111;-66
2021/12/01 07:04:01;;;;;;;2.10;0.80;;;8.90;99.90;;;;;;5011529;28;20042;-66
2021/12/01 07:06:26;;;;;;;2.60;1.00;;;8.90;99.90;;;;;;5002498;28;20171;-66
2021/12/01 07:08:54;;;;;;;1.20;0.90;;;8.90;99.90;;;;;;4996717;28;20099;-67
2021/12/01 07:11:20;;;;;;;1.50;1.05;;;8.90;99.90;;;;;;4997344;28;20107;-66
2021/12/01 07:13:46;;;;;;;1.75;0.90;;;8.90;99.90;;;;;;5005415;28;20050;-66
2021/12/01 07:16:11;;;;;;;1.60;0.70;;;8.90;99.90;;;;;;5006495;28;20564;-66
2021/12/01 07:18:37;;;;;;;0.82;0.70;;;8.90;99.90;;;;;;5003534;28;20037;-66
2021/12/01 07:21:04;;;;;;;1.23;1.08;;;8.90;99.90;;;;;;4992206;28;20026;-66
2021/12/01 07:23:30;;;;;;;1.75;1.00;;;8.90;99.90;;;;;;5003381;28;20040;-66
2021/12/01 07:25:56;;;;;;;1.95;0.70;;;8.80;99.90;;;;;;5010845;28;20046;-66
2021/12/01 07:28:21;;;;;;;1.52;1.20;;;8.80;99.90;;;;;;5000299;28;20038;-66
2021/12/01 07:30:47;;;;;;;1.88;1.33;;;8.90;99.90;;;;;;4981739;28;20057;-67
2021/12/01 07:33:13;;;;;;;2.97;1.42;;;8.90;99.90;;;;;;5001393;28;20735;-67
2021/12/01 07:35:38;;;;;;;2.00;1.77;;;8.90;99.90;;;;;;5007241;28;20038;-67
2021/12/01 07:38:04;;;;;;;1.70;1.60;;;8.90;99.90;;;;;;5004840;28;20041;-67
2021/12/01 07:40:30;;;;;;;2.42;1.83;;;9.00;99.90;;;;;;5007810;28;20678;-67
2021/12/01 07:42:55;;;;;;;1.75;1.65;;;9.00;99.90;;;;;;5002657;28;20718;-67
2021/12/01 07:45:21;;;;;;;2.10;1.75;;;8.90;99.90;;;;;;5010987;28;20044;-67
2021/12/01 07:47:47;;;;;;;3.05;2.05;;;8.90;99.90;;;;;;5004340;28;20038;-67
2021/12/01 07:50:13;;;;;;;2.75;2.38;;;8.90;99.90;;;;;;5006401;28;20597;-67
2021/12/01 07:52:39;;;;;;;2.55;2.35;;;8.90;99.90;;;;;;5006429;28;20046;-67
2021/12/01 07:55:06;;;;;;;2.67;2.35;;;9.00;99.90;;;;;;5001371;28;20045;-67
2021/12/01 07:57:33;;;;;;;2.78;2.30;;;9.00;99.90;;;;;;4996997;28;20675;-67
2021/12/01 07:59:59;;;;;;;3.03;2.15;;;8.90;99.90;;;;;;5005729;28;20041;-67
2021/12/01 08:02:24;;;;;;;2.20;1.90;;;9.00;99.90;;;;;;5006767;28;20045;-67
2021/12/01 08:04:50;;;;;;;3.33;2.03;;;9.00;99.90;;;;;;5004433;28;20037;-67
2021/12/01 08:07:16;;;;;;;2.42;2.05;;;9.00;99.90;;;;;;5008729;28;20140;-66
2021/12/01 08:09:42;;;;;;;2.45;1.95;;;9.00;99.90;;;;;;5000461;28;20053;-67
2021/12/01 08:12:11;;;;;;;3.25;2.17;;;9.00;99.90;;;;;;5005921;28;20041;-67
2021/12/01 08:14:37;;;;;;;4.55;2.15;;;9.10;99.90;;;;;;5001806;28;20068;-67
2021/12/01 08:17:03;;;;;;;3.08;2.38;;;9.10;99.90;;;;;;5004833;28;20057;-67
2021/12/01 08:19:29;;;;;;;2.75;2.13;;;9.10;99.90;;;;;;5005118;28;20069;-67
2021/12/01 08:21:55;;;;;;;3.42;2.42;;;9.10;99.90;;;;;;4995267;28;20081;-67
2021/12/01 08:24:21;;;;;;;3.28;2.13;;;9.10;99.90;;;;;;5003566;28;20109;-67
2021/12/01 08:26:48;;;;;;;3.92;2.10;;;9.20;99.90;;;;;;4995138;28;20095;-67
2021/12/01 08:29:15;;;;;;;3.42;2.50;;;9.20;99.90;;;;;;5006017;28;20529;-67
2021/12/01 08:31:41;;;;;;;4.82;2.60;;;9.20;99.90;;;;;;5002737;28;20470;-67
2021/12/01 08:34:07;;;;;;;3.95;2.33;;;9.20;99.90;;;;;;4996618;28;20678;-66
2021/12/01 08:36:33;;;;;;;3.78;2.00;;;9.20;99.90;;;;;;5001935;28;20502;-66
2021/12/01 08:38:59;;;;;;;4.25;2.92;;;9.20;99.90;;;;;;5009946;28;20042;-66
2021/12/01 08:41:25;;;;;;;3.10;2.25;;;9.20;99.90;;;;;;5001546;28;20437;-66
2021/12/01 08:43:50;;;;;;;3.28;2.17;;;9.20;99.90;;;;;;4994370;28;20038;-66
2021/12/01 08:46:16;;;;;;;4.07;1.98;;;9.20;99.90;;;;;;5003621;28;20057;-67
2021/12/01 08:48:42;;;;;;;4.72;2.25;;;9.20;99.90;;;;;;5006233;28;20100;-67
2021/12/01 08:51:08;;;;;;;4.95;2.00;;;9.10;99.90;;;;;;5004843;28;20373;-67
2021/12/01 08:53:37;;;;;;;5.22;1.40;;;9.10;99.90;;;;;;4995828;28;20046;-66
2021/12/01 08:56:04;;;;;;;4.47;1.17;;;9.10;99.90;;;;;;5005172;28;20077;-67
2021/12/01 08:58:30;;;;;;;4.82;1.20;;;9.10;99.90;;;;;;5013019;28;20116;-67
2021/12/01 09:00:56;;;;;;;7.68;1.70;;;9.10;99.90;;;;;;4989793;28;20087;-67
2021/12/01 09:03:23;;;;;;;8.15;1.42;;;9.10;99.90;;;;;;5018576;28;20038;-67
2021/12/01 09:05:50;;;;;;;9.13;1.80;;;9.10;99.90;;;;;;5007099;28;20097;-67
2021/12/01 09:08:17;;;;;;;7.43;1.20;;;9.10;99.90;;;;;;5009102;28;20045;-67
2021/12/01 09:10:44;;;;;;;9.45;1.10;;;9.00;99.90;;;;;;5013714;28;20089;-66
2021/12/01 09:13:10;;;;;;;9.75;2.20;;;9.10;99.90;;;;;;5005496;28;20484;-66
2021/12/01 09:15:36;;;;;;;10.43;1.52;;;9.10;99.90;;;;;;5010438;28;20049;-67
2021/12/01 09:18:02;;;;;;;10.82;1.58;;;9.00;99.90;;;;;;5008069;28;20046;-66
2021/12/01 09:20:29;;;;;;;7.00;1.27;;;9.00;99.90;;;;;;5012820;28;20470;-66
2021/12/01 09:22:56;;;;;;;6.10;1.00;;;9.00;99.90;;;;;;5005715;28;20034;-66
2021/12/01 09:25:21;;;;;;;4.30;0.80;;;9.00;99.90;;;;;;5011954;28;20506;-66
2021/12/01 09:27:49;;;;;;;9.43;1.00;;;9.10;99.90;;;;;;5003355;28;20046;-66
2021/12/01 09:30:16;;;;;;;7.13;0.93;;;9.10;99.90;;;;;;4992569;28;20092;-66
2021/12/01 09:32:43;;;;;;;8.45;1.15;;;9.10;99.90;;;;;;5006218;28;20121;-65
2021/12/01 09:35:10;;;;;;;9.75;0.95;;;9.10;99.90;;;;;;5010192;28;20042;-66
2021/12/01 09:37:37;;;;;;;5.72;0.70;;;9.20;99.90;;;;;;4995341;28;20128;-66
2021/12/01 09:40:05;;;;;;;7.38;0.82;;;9.10;99.90;;;;;;5011619;28;20045;-66
2021/12/01 09:42:31;;;;;;;7.03;0.95;;;9.10;99.90;;;;;;5002155;28;20549;-66
2021/12/01 09:44:57;;;;;;;7.68;1.00;;;9.00;99.90;;;;;;4998044;28;20145;-66
2021/12/01 09:47:24;;;;;;;4.60;0.80;;;9.00;99.90;;;;;;4995781;28;20050;-66
2021/12/01 09:49:50;;;;;;;13.27;1.13;;;8.90;99.90;;;;;;5008760;28;20054;-66
2021/12/01 09:52:18;;;;;;;7.13;0.90;;;9.00;99.90;;;;;;5010038;28;20050;-66
2021/12/01 09:54:44;;;;;;;9.98;1.27;;;8.90;99.90;;;;;;4993911;28;20061;-67
2021/12/01 09:57:14;;;;;;;7.03;0.90;;;8.90;99.90;;;;;;5007819;28;20236;-66
2021/12/01 09:59:41;;;;;;;6.65;0.85;;;8.90;99.90;;;;;;5007121;28;20099;-66
2021/12/01 10:02:08;;;;;;;8.77;1.05;;;8.90;99.90;;;;;;5008259;28;20054;-66
2021/12/01 10:04:34;;;;;;;8.00;1.10;;;9.00;99.90;;;;;;5004449;28;20034;-66
2021/12/01 10:07:21;;;;;;;12.25;1.70;;;9.00;99.90;;;;;;5011682;28;20056;-66
2021/12/01 10:09:52;;;;;;;5.80;0.77;;;9.00;99.90;;;;;;5003417;28;20052;-66
2021/12/01 10:12:18;;;;;;;10.00;1.20;;;9.00;99.90;;;;;;5008370;28;20053;-65
2021/12/01 10:14:47;;;;;;;13.93;1.70;;;9.00;99.90;;;;;;4991340;28;20439;-66
2021/12/01 10:17:14;;;;;;;9.57;1.10;;;9.00;99.90;;;;;;5009084;28;20064;-65
2021/12/01 10:19:39;;;;;;;6.47;0.80;;;9.00;99.90;;;;;;5005467;28;20069;-66
2021/12/01 10:22:10;;;;;;;9.00;1.20;;;9.10;99.90;;;;;;5009972;28;20721;-66
2021/12/01 10:24:39;;;;;;;9.90;1.38;;;9.10;99.90;;;;;;5003312;28;20100;-66
2021/12/01 10:27:11;;;;;;;10.82;1.23;;;9.20;99.90;;;;;;5007151;28;20042;-66
2021/12/01 10:29:43;;;;;;;11.18;1.08;;;9.20;99.90;;;;;;5007241;28;20046;-66
2021/12/01 10:32:09;;;;;;;6.75;1.25;;;9.10;99.90;;;;;;5008680;28;20750;-66
2021/12/01 10:34:43;;;;;;;9.57;1.25;;;9.10;99.90;;;;;;5002916;28;20046;-66
2021/12/01 10:37:14;;;;;;;11.38;1.27;;;9.10;99.90;;;;;;4990933;28;20139;-67
2021/12/01 10:39:45;;;;;;;11.35;1.60;;;9.10;99.90;;;;;;4991684;28;20504;-66
2021/12/01 10:42:15;;;;;;;12.27;1.40;;;9.10;99.90;;;;;;5006805;28;20747;-66
2021/12/01 10:45:05;;;;;;;9.68;1.42;;;9.20;99.90;;;;;;5002555;28;20084;-67
2021/12/01 10:47:40;;;;;;;7.88;1.38;;;9.20;99.90;;;;;;4996852;28;20049;-67
2021/12/01 10:50:09;;;;;;;11.38;1.38;;;9.30;99.90;;;;;;5001263;28;20038;-67
2021/12/01 10:52:42;;;;;;;12.43;1.75;;;9.40;99.90;;;;;;5009443;28;20038;-67
2021/12/01 10:55:23;;;;;;;12.18;1.45;;;9.40;99.90;;;;;;4993624;28;20093;-67
2021/12/01 10:57:55;;;;;;;5.85;1.00;;;9.40;99.90;;;;;;5004441;28;20499;-66
2021/12/01 11:00:23;;;;;;;7.20;0.98;;;9.30;99.90;;;;;;4991381;28;20466;-66
2021/12/01 11:02:50;;;;;;;11.25;1.25;;;9.30;99.90;;;;;;5009848;28;20478;-66
2021/12/01 11:05:40;;;;;;;9.63;1.02;;;9.20;99.90;;;;;;4988064;28;20037;-66
2021/12/01 11:08:09;;;;;;;9.32;1.23;;;9.20;99.90;;;;;;5002155;28;20113;-66
2021/12/01 11:10:35;;;;;;;12.38;1.40;;;9.10;99.90;;;;;;5007630;28;20046;-66
2021/12/01 11:13:02;;;;;;;8.18;1.30;;;9.10;99.90;;;;;;5005628;28;20034;-66
2021/12/01 11:15:31;;;;;;;9.30;1.50;;;9.10;99.90;;;;;;4998212;28;20502;-66
2021/12/01 11:17:58;;;;;;;11.35;1.55;;;9.10;99.90;;;;;;4978413;28;20097;-66
2021/12/01 11:20:44;;;;;;;12.18;1.63;;;9.00;99.90;;;;;;5006787;28;20056;-66
2021/12/01 11:23:17;;;;;;;11.60;1.60;;;9.00;99.90;;;;;;4998222;28;20488;-66
2021/12/01 11:25:46;;;;;;;10.90;1.52;;;9.00;99.90;;;;;;5009921;28;20072;-66
2021/12/01 11:28:15;;;;;;;10.05;1.33;;;9.00;99.90;;;;;;4999901;28;20446;-67
2021/12/01 11:30:44;;;;;;;22.95;4.03;;;9.00;99.90;;;;;;5008497;28;20042;-67
2021/12/01 11:33:13;;;;;;;12.48;1.80;;;9.00;99.90;;;;;;5003655;28;20033;-66
2021/12/01 11:35:41;;;;;;;15.32;2.30;;;9.00;99.90;;;;;;4993907;28;20057;-66
2021/12/01 11:38:08;;;;;;;12.77;2.05;;;9.00;99.90;;;;;;4993933;28;20144;-66
2021/12/01 11:40:35;;;;;;;12.98;2.55;;;9.00;99.90;;;;;;5008585;28;20061;-66
2021/12/01 11:43:00;;;;;;;14.73;2.40;;;9.00;99.90;;;;;;4980884;28;20137;-66
2021/12/01 11:45:26;;;;;;;11.70;1.90;;;9.00;99.90;;;;;;5010958;28;20130;-67
2021/12/01 11:47:53;;;;;;;16.60;2.15;;;9.00;99.90;;;;;;5000716;28;20121;-67
2021/12/01 11:50:27;;;;;;;12.07;1.63;;;8.90;99.90;;;;;;5007969;28;20042;-67
2021/12/01 11:53:22;;;;;;;15.60;2.13;;;8.90;99.90;;;;;;4994132;28;20043;-67
2021/12/01 11:55:47;;;;;;;16.75;2.42;;;8.80;99.90;;;;;;5006995;28;20100;-67
2021/12/01 11:58:52;;;;;;;18.17;2.60;;;8.70;99.90;;;;;;4984032;28;20038;-67
2021/12/01 12:01:20;;;;;;;16.85;2.55;;;8.70;99.90;;;;;;5010257;28;20044;-66
2021/12/01 12:04:06;;;;;;;12.20;2.13;;;8.70;99.90;;;;;;4985896;28;20136;-67
2021/12/01 12:06:46;;;;;;;16.67;2.42;;;8.70;99.90;;;;;;4986088;28;20053;-66
2021/12/01 12:09:14;;;;;;;20.48;2.70;;;8.70;99.90;;;;;;5002405;28;20046;-66
2021/12/01 12:11:49;;;;;;;17.02;2.53;;;8.60;99.90;;;;;;5008200;28;20072;-66
2021/12/01 12:14:17;;;;;;;16.80;2.50;;;8.60;99.90;;;;;;4981290;28;20031;-67
2021/12/01 12:17:07;;;;;;;17.92;2.88;;;8.50;99.90;;;;;;5005646;28;20148;-67
2021/12/01 12:19:57;;;;;;;23.23;2.97;;;8.50;99.90;;;;;;4986354;28;20050;-67
2021/12/01 12:22:26;;;;;;;24.48;3.03;;;8.50;99.90;;;;;;5006331;28;20046;-67
2021/12/01 12:24:54;;;;;;;15.25;2.22;;;8.60;99.90;;;;;;5003986;28;20038;-67
2021/12/01 12:27:45;;;;;;;20.50;2.85;;;8.50;99.90;;;;;;5007007;28;20048;-67
2021/12/01 12:30:33;;;;;;;17.00;2.67;;;8.50;99.90;;;;;;4987293;28;20053;-67
2021/12/01 12:33:16;;;;;;;15.30;2.33;;;8.40;99.90;;;;;;5010175;28;20386;-67
2021/12/01 12:35:44;;;;;;;16.02;2.33;;;8.50;99.90;;;;;;5008348;28;20045;-67
2021/12/01 12:38:11;;;;;;;16.73;2.88;;;8.40;99.90;;;;;;5007647;28;20041;-66
2021/12/01 12:40:39;;;;;;;18.98;2.72;;;8.50;99.90;;;;;;5006454;28;20402;-66
2021/12/01 12:43:08;;;;;;;21.13;2.92;;;8.40;99.90;;;;;;5010010;28;20045;-66
2021/12/01 12:45:36;;;;;;;19.13;3.30;;;8.50;99.90;;;;;;5002279;28;20647;-66
2021/12/01 12:48:25;;;;;;;17.55;2.45;;;8.40;99.90;;;;;;5004486;28;20087;-66
2021/12/01 12:51:17;;;;;;;14.15;1.92;;;8.40;99.90;;;;;;4996733;28;20514;-66
2021/12/01 12:54:01;;;;;;;12.95;2.15;;;8.40;99.90;;;;;;4991382;28;20073;-66
2021/12/01 12:56:32;;;;;;;12.35;1.88;;;8.30;99.90;;;;;;5005689;28;20038;-66
2021/12/01 12:59:18;;;;;;;12.75;2.08;;;8.30;99.90;;;;;;5012950;28;20387;-66
2021/12/01 13:01:45;;;;;;;17.27;2.42;;;8.30;99.90;;;;;;4994642;28;20092;-67
2021/12/01 13:04:52;;;;;;;19.63;2.55;;;8.30;99.90;;;;;;5009202;28;20510;-66
2021/12/01 13:07:33;;;;;;;14.38;2.75;;;8.30;99.90;;;;;;4980674;28;20056;-66
2021/12/01 13:10:20;;;;;;;12.90;1.67;;;8.30;99.90;;;;;;5014009;28;20379;-66